Time,TemperatureF,DewpointF,PressureIn,WindDirection,WindDirectionDegrees,WindSpeedMPH,WindSpeedGustMPH,Humidity,HourlyPrecipIn,Conditions,Clouds,dailyrainin,SoftwareType,DateUTC
2013-06-01 00:03:00,72.0,67.0,29.95,WSW,248,0.0,1.0,85,0.00,,,0.00,,2013-06-01 04:03:00,
2013-06-01 00:12:00,72.0,67.0,29.95,WSW,248,0.0,1.0,85,0.00,,,0.00,,2013-06-01 04:12:00,
2013-06-01 00:23:00,72.0,67.0,29.95,WSW,248,0.0,1.0,85,0.00,,,0.00,,2013-06-01 04:23:00,
2013-06-01 00:33:00,71.0,67.0,29.94,North,0,0.0,0.0,87,0.00,,,0.00,,2013-06-01 04:33:00,
2013-06-01 00:42:00,71.0,67.0,29.94,North,0,0.0,0.0,87,0.00,,,0.00,,2013-06-01 04:42:00,
2013-06-01 00:53:00,71.0,67.0,29.94,North,0,0.0,0.0,87,0.00,,,0.00,,2013-06-01 04:53:00,
2013-06-01 01:02:00,70.0,66.0,29.94,North,0,0.0,0.0,88,0.00,,,0.00,,2013-06-01 05:02:00,
2013-06-01 01:12:00,70.0,66.0,29.94,North,0,0.0,0.0,88,0.00,,,0.00,,2013-06-01 05:12:00,
2013-06-01 01:22:00,70.0,67.0,29.94,North,0,0.0,0.0,89,0.00,,,0.00,,2013-06-01 05:22:00,
2013-06-01 01:32:00,70.0,67.0,29.93,North,0,0.0,0.0,89,0.00,,,0.00,,2013-06-01 05:32:00,
2013-06-01 01:42:00,70.0,67.0,29.93,North,0,0.0,0.0,89,0.00,,,0.00,,2013-06-01 05:42:00,
2013-06-01 01:52:00,70.0,67.0,29.93,North,0,0.0,0.0,89,0.00,,,0.00,,2013-06-01 05:52:00,
2013-06-01 02:01:00,69.0,66.0,29.93,North,0,0.0,0.0,90,0.00,,,0.00,,2013-06-01 06:01:00,
2013-06-01 02:12:00,69.0,66.0,29.93,North,0,0.0,0.0,90,0.00,,,0.00,,2013-06-01 06:12:00,
2013-06-01 02:22:00,69.0,66.0,29.93,North,0,0.0,0.0,90,0.00,,,0.00,,2013-06-01 06:22:00,
2013-06-01 02:32:00,68.0,65.0,29.92,North,0,0.0,0.0,91,0.00,,,0.00,,2013-06-01 06:32:00,
2013-06-01 02:42:00,68.0,65.0,29.92,North,0,0.0,0.0,91,0.00,,,0.00,,2013-06-01 06:42:00,
2013-06-01 02:52:00,68.0,65.0,29.92,North,0,0.0,0.0,91,0.00,,,0.00,,2013-06-01 06:52:00,
2013-06-01 03:01:00,67.0,64.0,29.92,North,0,0.0,0.0,91,0.00,,,0.00,,2013-06-01 07:01:00,
2013-06-01 03:11:00,67.0,64.0,29.92,North,0,0.0,0.0,91,0.00,,,0.00,,2013-06-01 07:11:00,
2013-06-01 03:22:00,67.0,65.0,29.92,North,0,0.0,0.0,92,0.00,,,0.00,,2013-06-01 07:22:00,
2013-06-01 03:32:00,67.0,65.0,29.92,North,0,0.0,0.0,92,0.00,,,0.00,,2013-06-01 07:32:00,
2013-06-01 03:42:00,66.0,64.0,29.92,North,0,0.0,0.0,92,0.00,,,0.00,,2013-06-01 07:42:00,
2013-06-01 03:52:00,66.0,64.0,29.92,North,0,0.0,0.0,92,0.00,,,0.00,,2013-06-01 07:52:00,
2013-06-01 04:02:00,66.0,64.0,29.92,North,0,0.0,0.0,92,0.00,,,0.00,,2013-06-01 08:02:00,
2013-06-01 04:11:00,66.0,64.0,29.92,North,0,0.0,0.0,92,0.00,,,0.00,,2013-06-01 08:11:00,
2013-06-01 04:22:00,66.0,64.0,29.92,North,0,0.0,0.0,92,0.00,,,0.00,,2013-06-01 08:22:00,
2013-06-01 04:32:00,66.0,64.0,29.92,North,0,0.0,0.0,92,0.00,,,0.00,,2013-06-01 08:32:00,
2013-06-01 04:42:00,65.0,63.0,29.92,North,0,0.0,0.0,92,0.00,,,0.00,,2013-06-01 08:42:00,
2013-06-01 04:52:00,65.0,63.0,29.92,North,0,0.0,0.0,92,0.00,,,0.00,,2013-06-01 08:52:00,
2013-06-01 05:01:00,65.0,63.0,29.92,North,0,0.0,0.0,93,0.00,,,0.00,,2013-06-01 09:01:00,
2013-06-01 05:12:00,65.0,63.0,29.92,North,0,0.0,0.0,93,0.00,,,0.00,,2013-06-01 09:12:00,
2013-06-01 05:22:00,65.0,63.0,29.92,North,0,0.0,0.0,93,0.00,,,0.00,,2013-06-01 09:22:00,
2013-06-01 05:33:00,65.0,63.0,29.93,North,0,0.0,0.0,93,0.00,,,0.00,,2013-06-01 09:33:00,
2013-06-01 05:43:00,65.0,63.0,29.93,North,0,0.0,0.0,93,0.00,,,0.00,,2013-06-01 09:43:00,
2013-06-01 05:53:00,65.0,63.0,29.93,North,0,0.0,0.0,93,0.00,,,0.00,,2013-06-01 09:53:00,
2013-06-01 06:02:00,64.0,62.0,29.93,North,0,0.0,0.0,93,0.00,,,0.00,,2013-06-01 10:02:00,
2013-06-01 06:13:00,64.0,62.0,29.93,North,0,0.0,0.0,93,0.00,,,0.00,,2013-06-01 10:13:00,
2013-06-01 06:22:00,64.0,62.0,29.93,WSW,248,0.0,1.0,93,0.00,,,0.00,,2013-06-01 10:22:00,
2013-06-01 06:33:00,64.0,62.0,29.93,WSW,248,0.0,2.0,93,0.00,,,0.00,,2013-06-01 10:33:00,
2013-06-01 06:42:00,64.0,62.0,29.93,WSW,248,0.0,2.0,93,0.00,,,0.00,,2013-06-01 10:42:00,
2013-06-01 06:52:00,65.0,63.0,29.93,SW,220,0.0,2.0,94,0.00,,,0.00,,2013-06-01 10:52:00,
2013-06-01 07:02:00,65.0,63.0,29.93,SW,220,0.0,2.0,94,0.00,,,0.00,,2013-06-01 11:02:00,
2013-06-01 07:11:00,65.0,63.0,29.93,SW,220,0.0,2.0,94,0.00,,,0.00,,2013-06-01 11:11:00,
2013-06-01 07:21:00,65.0,63.0,29.93,SW,220,0.0,2.0,94,0.00,,,0.00,,2013-06-01 11:21:00,
2013-06-01 07:32:00,68.0,66.0,29.93,SSW,195,0.0,4.0,92,0.00,,,0.00,,2013-06-01 11:32:00,
2013-06-01 07:42:00,68.0,66.0,29.93,SSW,195,0.0,4.0,92,0.00,,,0.00,,2013-06-01 11:42:00,
2013-06-01 07:52:00,69.0,66.0,29.93,SW,233,0.0,3.0,90,0.00,,,0.00,,2013-06-01 11:52:00,
2013-06-01 08:00:00,73.0,66.0,29.93,SW,218,0.0,4.0,80,0.00,,,0.00,,2013-06-01 12:00:00,
2013-06-01 08:01:00,70.0,66.0,29.93,SW,235,1.0,5.0,88,0.00,,,0.00,,2013-06-01 12:01:00,
2013-06-01 08:12:00,70.0,66.0,29.93,SW,235,1.0,5.0,88,0.00,,,0.00,,2013-06-01 12:12:00,
2013-06-01 08:21:00,73.0,66.0,29.93,SW,218,0.0,4.0,80,0.00,,,0.00,,2013-06-01 12:21:00,
2013-06-01 08:32:00,73.0,66.0,29.93,SW,218,0.0,4.0,80,0.00,,,0.00,,2013-06-01 12:32:00,
2013-06-01 08:42:00,73.0,66.0,29.93,SW,218,0.0,4.0,80,0.00,,,0.00,,2013-06-01 12:42:00,
2013-06-01 08:52:00,73.0,66.0,29.93,SW,218,0.0,4.0,80,0.00,,,0.00,,2013-06-01 12:52:00,
2013-06-01 09:22:00,79.0,68.0,29.94,SW,224,1.0,5.0,70,0.00,,,0.00,,2013-06-01 13:22:00,
2013-06-01 09:32:00,80.0,69.0,29.94,WNW,284,1.0,5.0,70,0.00,,,0.00,,2013-06-01 13:32:00,
2013-06-01 09:42:00,82.0,71.0,29.93,SW,226,1.0,5.0,69,0.00,,,0.00,,2013-06-01 13:42:00,
2013-06-01 09:52:00,82.0,71.0,29.93,SW,226,1.0,5.0,69,0.00,,,0.00,,2013-06-01 13:52:00,
2013-06-01 10:02:00,85.0,70.0,29.93,WSW,249,1.0,4.0,61,0.00,,,0.00,,2013-06-01 14:02:00,
2013-06-01 10:11:00,85.0,70.0,29.93,WSW,249,1.0,4.0,61,0.00,,,0.00,,2013-06-01 14:11:00,
2013-06-01 10:21:00,85.0,70.0,29.93,WSW,249,1.0,4.0,61,0.00,,,0.00,,2013-06-01 14:21:00,
2013-06-01 10:32:00,87.0,73.0,29.93,West,269,1.0,6.0,63,0.00,,,0.00,,2013-06-01 14:32:00,
2013-06-01 10:42:00,87.0,73.0,29.93,West,269,1.0,6.0,63,0.00,,,0.00,,2013-06-01 14:42:00,
2013-06-01 10:52:00,87.0,73.0,29.93,West,269,1.0,6.0,63,0.00,,,0.00,,2013-06-01 14:52:00,
2013-06-01 11:02:00,89.0,68.0,29.91,West,268,1.0,8.0,51,0.00,,,0.00,,2013-06-01 15:02:00,
2013-06-01 11:11:00,89.0,68.0,29.91,West,268,1.0,8.0,51,0.00,,,0.00,,2013-06-01 15:11:00,
2013-06-01 11:22:00,89.0,68.0,29.91,West,268,1.0,8.0,51,0.00,,,0.00,,2013-06-01 15:22:00,
2013-06-01 11:33:00,91.0,69.0,29.91,WSW,258,2.0,9.0,49,0.00,,,0.00,,2013-06-01 15:33:00,
2013-06-01 11:43:00,91.0,69.0,29.91,WSW,258,2.0,9.0,49,0.00,,,0.00,,2013-06-01 15:43:00,
2013-06-01 11:53:00,91.0,69.0,29.91,WSW,258,2.0,9.0,49,0.00,,,0.00,,2013-06-01 15:53:00,
2013-06-01 12:03:00,92.0,66.0,29.90,SSW,199,2.0,8.0,43,0.00,,,0.00,,2013-06-01 16:03:00,
2013-06-01 12:12:00,92.0,66.0,29.90,SSW,199,2.0,8.0,43,0.00,,,0.00,,2013-06-01 16:12:00,
2013-06-01 12:23:00,92.0,66.0,29.90,SSW,199,2.0,8.0,43,0.00,,,0.00,,2013-06-01 16:23:00,
2013-06-01 12:33:00,92.0,66.0,29.89,SSW,201,3.0,12.0,42,0.00,,,0.00,,2013-06-01 16:33:00,
2013-06-01 12:42:00,92.0,66.0,29.89,SSW,201,3.0,12.0,42,0.00,,,0.00,,2013-06-01 16:42:00,
2013-06-01 12:53:00,92.0,66.0,29.89,SSW,201,3.0,12.0,42,0.00,,,0.00,,2013-06-01 16:53:00,
2013-06-01 13:02:00,93.0,68.0,29.88,SW,214,2.0,12.0,44,0.00,,,0.00,,2013-06-01 17:02:00,
2013-06-01 13:12:00,93.0,68.0,29.88,SW,214,2.0,12.0,44,0.00,,,0.00,,2013-06-01 17:12:00,
2013-06-01 13:22:00,93.0,65.0,29.88,SSW,208,3.0,10.0,40,0.00,,,0.00,,2013-06-01 17:22:00,
2013-06-01 13:32:00,93.0,64.0,29.87,SW,236,2.0,14.0,39,0.00,,,0.00,,2013-06-01 17:32:00,
2013-06-01 13:40:00,93.0,69.0,29.87,SSW,202,3.0,12.0,46,0.00,,,0.00,,2013-06-01 17:40:00,
2013-06-01 13:42:00,93.0,64.0,29.87,SW,236,2.0,14.0,39,0.00,,,0.00,,2013-06-01 17:42:00,
2013-06-01 13:52:00,93.0,61.0,29.87,SW,223,3.0,12.0,35,0.00,,,0.00,,2013-06-01 17:52:00,
2013-06-01 14:01:00,93.0,69.0,29.87,SSW,202,3.0,12.0,46,0.00,,,0.00,,2013-06-01 18:01:00,
2013-06-01 14:12:00,93.0,69.0,29.87,SSW,202,3.0,12.0,46,0.00,,,0.00,,2013-06-01 18:12:00,
2013-06-01 14:22:00,93.0,69.0,29.87,SSW,202,3.0,12.0,46,0.00,,,0.00,,2013-06-01 18:22:00,
2013-06-01 14:32:00,93.0,69.0,29.87,SSW,202,3.0,12.0,46,0.00,,,0.00,,2013-06-01 18:32:00,
2013-06-01 15:21:00,92.0,66.0,29.85,WSW,251,3.0,10.0,42,0.00,,,0.00,,2013-06-01 19:21:00,
2013-06-01 15:32:00,92.0,66.0,29.85,WSW,251,3.0,10.0,42,0.00,,,0.00,,2013-06-01 19:32:00,
2013-06-01 15:42:00,92.0,66.0,29.85,WSW,251,3.0,10.0,42,0.00,,,0.00,,2013-06-01 19:42:00,
2013-06-01 15:52:00,92.0,67.0,29.84,SW,226,2.0,10.0,44,0.00,,,0.00,,2013-06-01 19:52:00,
2013-06-01 16:02:00,92.0,63.0,29.84,WSW,252,2.0,11.0,39,0.00,,,0.00,,2013-06-01 20:02:00,
2013-06-01 16:12:00,92.0,63.0,29.84,WSW,252,2.0,11.0,39,0.00,,,0.00,,2013-06-01 20:12:00,
2013-06-01 16:21:00,92.0,63.0,29.84,WSW,252,2.0,11.0,39,0.00,,,0.00,,2013-06-01 20:21:00,
2013-06-01 16:32:00,91.0,69.0,29.84,West,275,2.0,11.0,48,0.00,,,0.00,,2013-06-01 20:32:00,
2013-06-01 16:42:00,91.0,69.0,29.84,West,275,2.0,11.0,48,0.00,,,0.00,,2013-06-01 20:42:00,
2013-06-01 16:52:00,91.0,69.0,29.84,West,275,2.0,11.0,48,0.00,,,0.00,,2013-06-01 20:52:00,
2013-06-01 17:01:00,91.0,69.0,29.84,West,275,2.0,11.0,48,0.00,,,0.00,,2013-06-01 21:01:00,
2013-06-01 17:12:00,91.0,67.0,29.82,SW,236,2.0,11.0,46,0.00,,,0.00,,2013-06-01 21:12:00,
2013-06-01 17:22:00,91.0,67.0,29.82,SW,236,2.0,11.0,46,0.00,,,0.00,,2013-06-01 21:22:00,
2013-06-01 17:33:00,91.0,66.0,29.82,SW,221,3.0,12.0,44,0.00,,,0.00,,2013-06-01 21:33:00,
2013-06-01 17:43:00,91.0,66.0,29.82,SW,221,3.0,12.0,44,0.00,,,0.00,,2013-06-01 21:43:00,
2013-06-01 17:53:00,91.0,66.0,29.82,SW,221,3.0,12.0,44,0.00,,,0.00,,2013-06-01 21:53:00,
2013-06-01 18:03:00,90.0,69.0,29.82,WSW,238,3.0,13.0,50,0.00,,,0.00,,2013-06-01 22:03:00,
2013-06-01 18:12:00,90.0,69.0,29.82,WSW,238,3.0,13.0,50,0.00,,,0.00,,2013-06-01 22:12:00,
2013-06-01 18:23:00,90.0,71.0,29.82,WSW,244,1.0,6.0,53,0.00,,,0.00,,2013-06-01 22:23:00,
2013-06-01 18:33:00,90.0,68.0,29.82,SW,224,1.0,9.0,48,0.00,,,0.00,,2013-06-01 22:33:00,
2013-06-01 18:42:00,90.0,68.0,29.82,SW,224,1.0,9.0,48,0.00,,,0.00,,2013-06-01 22:42:00,
2013-06-01 18:53:00,89.0,68.0,29.82,SW,228,2.0,11.0,50,0.00,,,0.00,,2013-06-01 22:53:00,
2013-06-01 19:02:00,88.0,68.0,29.82,SW,235,1.0,7.0,52,0.00,,,0.00,,2013-06-01 23:02:00,
2013-06-01 19:12:00,86.0,69.0,29.83,WSW,249,1.0,6.0,58,0.00,,,0.00,,2013-06-01 23:12:00,
2013-06-01 19:22:00,86.0,69.0,29.83,WSW,249,1.0,6.0,58,0.00,,,0.00,,2013-06-01 23:22:00,
2013-06-01 19:32:00,85.0,68.0,29.83,WSW,245,2.0,7.0,56,0.00,,,0.00,,2013-06-01 23:32:00,
2013-06-01 19:42:00,85.0,68.0,29.83,WSW,245,2.0,7.0,56,0.00,,,0.00,,2013-06-01 23:42:00,
2013-06-01 19:52:00,85.0,68.0,29.83,WSW,245,2.0,7.0,56,0.00,,,0.00,,2013-06-01 23:52:00,
2013-06-01 20:02:00,80.0,67.0,29.83,SW,221,1.0,7.0,64,0.00,,,0.00,,2013-06-02 00:02:00,
2013-06-01 20:11:00,80.0,67.0,29.83,SW,221,1.0,7.0,64,0.00,,,0.00,,2013-06-02 00:11:00,
2013-06-01 20:22:00,80.0,68.0,29.84,SW,228,0.0,1.0,66,0.00,,,0.00,,2013-06-02 00:22:00,
2013-06-01 20:32:00,79.0,68.0,29.84,SW,228,0.0,1.0,70,0.00,,,0.00,,2013-06-02 00:32:00,
2013-06-01 20:42:00,79.0,68.0,29.84,SW,228,0.0,1.0,70,0.00,,,0.00,,2013-06-02 00:42:00,
2013-06-01 20:51:00,79.0,68.0,29.84,SW,228,0.0,1.0,70,0.00,,,0.00,,2013-06-02 00:51:00,
2013-06-01 21:01:00,78.0,69.0,29.84,North,0,0.0,0.0,74,0.00,,,0.00,,2013-06-02 01:01:00,
2013-06-01 21:11:00,78.0,69.0,29.84,North,0,0.0,0.0,74,0.00,,,0.00,,2013-06-02 01:11:00,
2013-06-01 21:21:00,76.0,69.0,29.85,North,0,0.0,0.0,78,0.00,,,0.00,,2013-06-02 01:21:00,
2013-06-01 21:32:00,74.0,68.0,29.85,SW,229,0.0,1.0,82,0.00,,,0.00,,2013-06-02 01:32:00,
2013-06-01 21:42:00,74.0,68.0,29.85,SW,229,0.0,1.0,82,0.00,,,0.00,,2013-06-02 01:42:00,
2013-06-01 21:52:00,74.0,69.0,29.85,SW,228,0.0,2.0,84,0.00,,,0.00,,2013-06-02 01:52:00,
2013-06-01 22:02:00,74.0,69.0,29.85,SW,226,0.0,2.0,85,0.00,,,0.00,,2013-06-02 02:02:00,
2013-06-01 22:12:00,74.0,69.0,29.85,SW,226,0.0,2.0,85,0.00,,,0.00,,2013-06-02 02:12:00,
2013-06-01 22:21:00,74.0,69.0,29.85,SW,226,0.0,2.0,85,0.00,,,0.00,,2013-06-02 02:21:00,
2013-06-01 22:32:00,76.0,69.0,29.85,SW,217,2.0,9.0,80,0.00,,,0.00,,2013-06-02 02:32:00,
2013-06-01 22:42:00,76.0,69.0,29.85,SW,217,2.0,9.0,80,0.00,,,0.00,,2013-06-02 02:42:00,
2013-06-01 22:52:00,76.0,69.0,29.85,SW,217,2.0,9.0,80,0.00,,,0.00,,2013-06-02 02:52:00,
2013-06-01 23:02:00,78.0,70.0,29.85,SSW,209,1.0,6.0,77,0.00,,,0.00,,2013-06-02 03:02:00,
2013-06-01 23:11:00,78.0,70.0,29.85,SSW,209,1.0,6.0,77,0.00,,,0.00,,2013-06-02 03:11:00,
2013-06-01 23:21:00,77.0,69.0,29.85,WSW,238,1.0,5.0,77,0.00,,,0.00,,2013-06-02 03:21:00,
2013-06-01 23:33:00,77.0,69.0,29.84,SSW,206,0.0,5.0,77,0.00,,,0.00,,2013-06-02 03:33:00,
2013-06-01 23:43:00,77.0,69.0,29.84,SSW,206,0.0,5.0,77,0.00,,,0.00,,2013-06-02 03:43:00,
2013-06-01 23:53:00,76.0,68.0,29.84,SSW,198,1.0,4.0,77,0.00,,,0.00,,2013-06-02 03:53:00,